sensor_id;sensor_type;location;lat;lon;timestamp;P1;P2;P0
40947;PMS5003;49382;-25.924;28.194;2023-02-15T00:01:53;0;0;
40947;PMS5003;49382;-25.924;28.194;2023-02-15T00:04:19;0;0;
40947;PMS5003;49382;-25.924;28.194;2023-02-15T00:06:44;0;0;
40947;PMS5003;49382;-25.924;28.194;2023-02-15T00:09:10;0;0;
40947;PMS5003;49382;-25.924;28.194;2023-02-15T00:11:36;0;0;
40947;PMS5003;49382;-25.924;28.194;2023-02-15T00:14:01;0;0;
40947;PMS5003;49382;-25.924;28.194;2023-02-15T00:16:27;9;9;
40947;PMS5003;49382;-25.924;28.194;2023-02-15T00:18:53;58;58;
40947;PMS5003;49382;-25.924;28.194;2023-02-15T00:21:18;45;45;
40947;PMS5003;49382;-25.924;28.194;2023-02-15T00:23:44;96;96;
40947;PMS5003;49382;-25.924;28.194;2023-02-15T00:26:11;118;118;
40947;PMS5003;49382;-25.924;28.194;2023-02-15T00:28:35;108;108;
40947;PMS5003;49382;-25.924;28.194;2023-02-15T00:31:04;103;103;
40947;PMS5003;49382;-25.924;28.194;2023-02-15T00:33:25;83;83;
40947;PMS5003;49382;-25.924;28.194;2023-02-15T00:35:56;83;83;
40947;PMS5003;49382;-25.924;28.194;2023-02-15T00:38:16;76;76;
40947;PMS5003;49382;-25.924;28.194;2023-02-15T00:40:41;64;64;
40947;PMS5003;49382;-25.924;28.194;2023-02-15T00:43:06;61;61;
40947;PMS5003;49382;-25.924;28.194;2023-02-15T00:45:31;68;68;
40947;PMS5003;49382;-25.924;28.194;2023-02-15T00:47:56;75;75;
40947;PMS5003;49382;-25.924;28.194;2023-02-15T00:50:21;72;72;
40947;PMS5003;49382;-25.924;28.194;2023-02-15T00:52:47;57;57;
40947;PMS5003;49382;-25.924;28.194;2023-02-15T00:55:11;27;27;
40947;PMS5003;49382;-25.924;28.194;2023-02-15T00:57:37;1;1;
40947;PMS5003;49382;-25.924;28.194;2023-02-15T01:00:03;1;1;
40947;PMS5003;49382;-25.924;28.194;2023-02-15T01:02:29;1;1;
40947;PMS5003;49382;-25.924;28.194;2023-02-15T01:04:54;1;1;
40947;PMS5003;49382;-25.924;28.194;2023-02-15T01:07:20;1;1;
40947;PMS5003;49382;-25.924;28.194;2023-02-15T01:09:46;2;2;
40947;PMS5003;49382;-25.924;28.194;2023-02-15T01:12:12;0;0;
40947;PMS5003;49382;-25.924;28.194;2023-02-15T01:14:38;2;1;
40947;PMS5003;49382;-25.924;28.194;2023-02-15T01:17:03;1;1;
40947;PMS5003;49382;-25.924;28.194;2023-02-15T01:19:29;24;23;
40947;PMS5003;49382;-25.924;28.194;2023-02-15T01:21:54;42;42;
40947;PMS5003;49382;-25.924;28.194;2023-02-15T01:24:19;35;35;
40947;PMS5003;49382;-25.924;28.194;2023-02-15T01:26:45;12;12;
40947;PMS5003;49382;-25.924;28.194;2023-02-15T01:29:10;97;97;
40947;PMS5003;49382;-25.924;28.194;2023-02-15T01:31:35;71;70;
40947;PMS5003;49382;-25.924;28.194;2023-02-15T01:34:00;114;114;
40947;PMS5003;49382;-25.924;28.194;2023-02-15T01:36:26;139;139;
40947;PMS5003;49382;-25.924;28.194;2023-02-15T01:38:51;87;86;
40947;PMS5003;49382;-25.924;28.194;2023-02-15T01:41:16;20;20;
40947;PMS5003;49382;-25.924;28.194;2023-02-15T01:43:43;32;32;
40947;PMS5003;49382;-25.924;28.194;2023-02-15T01:46:08;35;35;
40947;PMS5003;49382;-25.924;28.194;2023-02-15T01:48:33;49;49;
40947;PMS5003;49382;-25.924;28.194;2023-02-15T01:50:59;22;22;
40947;PMS5003;49382;-25.924;28.194;2023-02-15T01:53:26;56;56;
40947;PMS5003;49382;-25.924;28.194;2023-02-15T01:55:50;164;164;
40947;PMS5003;49382;-25.924;28.194;2023-02-15T01:58:15;162;162;
40947;PMS5003;49382;-25.924;28.194;2023-02-15T02:00:40;152;152;
40947;PMS5003;49382;-25.924;28.194;2023-02-15T02:03:06;183;183;
40947;PMS5003;49382;-25.924;28.194;2023-02-15T02:05:31;94;93;
40947;PMS5003;49382;-25.924;28.194;2023-02-15T02:07:57;22;22;
40947;PMS5003;49382;-25.924;28.194;2023-02-15T02:10:23;10;10;
40947;PMS5003;49382;-25.924;28.194;2023-02-15T02:12:48;1;1;
40947;PMS5003;49382;-25.924;28.194;2023-02-15T02:15:14;58;58;
40947;PMS5003;49382;-25.924;28.194;2023-02-15T02:17:42;2;2;
40947;PMS5003;49382;-25.924;28.194;2023-02-15T02:27:26;1;1;
40947;PMS5003;49382;-25.924;28.194;2023-02-15T02:34:40;2;2;
40947;PMS5003;49382;-25.924;28.194;2023-02-15T02:37:07;2;2;
40947;PMS5003;49382;-25.924;28.194;2023-02-15T02:39:33;1;1;
40947;PMS5003;49382;-25.924;28.194;2023-02-15T02:42:01;1;1;
40947;PMS5003;49382;-25.924;28.194;2023-02-15T02:44:24;1;1;
40947;PMS5003;49382;-25.924;28.194;2023-02-15T02:46:50;3;3;
40947;PMS5003;49382;-25.924;28.194;2023-02-15T02:49:14;2;2;
40947;PMS5003;49382;-25.924;28.194;2023-02-15T02:51:40;1;1;
40947;PMS5003;49382;-25.924;28.194;2023-02-15T02:54:06;2;2;
40947;PMS5003;49382;-25.924;28.194;2023-02-15T02:56:33;3;3;
40947;PMS5003;49382;-25.924;28.194;2023-02-15T02:58:59;1;1;
40947;PMS5003;49382;-25.924;28.194;2023-02-15T03:01:24;2;2;
40947;PMS5003;49382;-25.924;28.194;2023-02-15T03:03:49;3;3;
40947;PMS5003;49382;-25.924;28.194;2023-02-15T03:06:16;3;3;
40947;PMS5003;49382;-25.924;28.194;2023-02-15T03:08:41;6;6;
40947;PMS5003;49382;-25.924;28.194;2023-02-15T03:11:06;8;8;
40947;PMS5003;49382;-25.924;28.194;2023-02-15T03:13:32;7;6;
40947;PMS5003;49382;-25.924;28.194;2023-02-15T03:15:58;6;6;
40947;PMS5003;49382;-25.924;28.194;2023-02-15T03:18:24;5;5;
40947;PMS5003;49382;-25.924;28.194;2023-02-15T03:20:49;5;5;
40947;PMS5003;49382;-25.924;28.194;2023-02-15T03:23:16;6;6;
40947;PMS5003;49382;-25.924;28.194;2023-02-15T03:25:41;6;6;
40947;PMS5003;49382;-25.924;28.194;2023-02-15T03:28:07;7;7;
40947;PMS5003;49382;-25.924;28.194;2023-02-15T03:30:32;5;5;
40947;PMS5003;49382;-25.924;28.194;2023-02-15T03:32:58;8;8;
40947;PMS5003;49382;-25.924;28.194;2023-02-15T03:35:24;7;7;
40947;PMS5003;49382;-25.924;28.194;2023-02-15T03:37:51;7;7;
40947;PMS5003;49382;-25.924;28.194;2023-02-15T03:40:16;6;6;
40947;PMS5003;49382;-25.924;28.194;2023-02-15T03:42:41;7;6;
40947;PMS5003;49382;-25.924;28.194;2023-02-15T03:45:08;6;6;
40947;PMS5003;49382;-25.924;28.194;2023-02-15T03:47:33;5;5;
40947;PMS5003;49382;-25.924;28.194;2023-02-15T03:50:00;5;5;
40947;PMS5003;49382;-25.924;28.194;2023-02-15T03:52:24;7;7;
40947;PMS5003;49382;-25.924;28.194;2023-02-15T03:54:50;6;6;
40947;PMS5003;49382;-25.924;28.194;2023-02-15T03:57:17;6;6;
40947;PMS5003;49382;-25.924;28.194;2023-02-15T03:59:42;5;5;
40947;PMS5003;49382;-25.924;28.194;2023-02-15T04:02:09;7;7;
40947;PMS5003;49382;-25.924;28.194;2023-02-15T04:04:34;6;6;
40947;PMS5003;49382;-25.924;28.194;2023-02-15T04:06:58;6;6;
40947;PMS5003;49382;-25.924;28.194;2023-02-15T04:09:24;6;6;
40947;PMS5003;49382;-25.924;28.194;2023-02-15T04:11:49;7;7;
40947;PMS5003;49382;-25.924;28.194;2023-02-15T04:14:15;6;5;
40947;PMS5003;49382;-25.924;28.194;2023-02-15T04:16:41;7;7;
40947;PMS5003;49382;-25.924;28.194;2023-02-15T04:19:07;7;7;
40947;PMS5003;49382;-25.924;28.194;2023-02-15T04:21:32;10;10;
40947;PMS5003;49382;-25.924;28.194;2023-02-15T04:23:58;8;8;
40947;PMS5003;49382;-25.924;28.194;2023-02-15T04:26:24;9;8;
40947;PMS5003;49382;-25.924;28.194;2023-02-15T04:28:50;12;12;
40947;PMS5003;49382;-25.924;28.194;2023-02-15T04:31:16;9;9;
40947;PMS5003;49382;-25.924;28.194;2023-02-15T04:33:41;11;11;
40947;PMS5003;49382;-25.924;28.194;2023-02-15T04:36:07;9;9;
40947;PMS5003;49382;-25.924;28.194;2023-02-15T04:38:33;11;11;
40947;PMS5003;49382;-25.924;28.194;2023-02-15T04:40:59;10;10;
40947;PMS5003;49382;-25.924;28.194;2023-02-15T04:43:24;11;11;
40947;PMS5003;49382;-25.924;28.194;2023-02-15T04:45:50;9;9;
40947;PMS5003;49382;-25.924;28.194;2023-02-15T04:48:16;21;21;
40947;PMS5003;49382;-25.924;28.194;2023-02-15T04:50:42;39;39;
40947;PMS5003;49382;-25.924;28.194;2023-02-15T04:53:07;53;53;
40947;PMS5003;49382;-25.924;28.194;2023-02-15T04:55:32;51;51;
40947;PMS5003;49382;-25.924;28.194;2023-02-15T04:57:57;40;40;
40947;PMS5003;49382;-25.924;28.194;2023-02-15T05:00:23;15;15;
40947;PMS5003;49382;-25.924;28.194;2023-02-15T05:02:48;18;18;
40947;PMS5003;49382;-25.924;28.194;2023-02-15T05:05:14;12;12;
40947;PMS5003;49382;-25.924;28.194;2023-02-15T05:07:40;15;15;
40947;PMS5003;49382;-25.924;28.194;2023-02-15T05:10:06;16;16;
40947;PMS5003;49382;-25.924;28.194;2023-02-15T05:12:31;10;10;
40947;PMS5003;49382;-25.924;28.194;2023-02-15T05:14:57;19;19;
40947;PMS5003;49382;-25.924;28.194;2023-02-15T05:17:23;16;15;
40947;PMS5003;49382;-25.924;28.194;2023-02-15T05:19:49;7;7;
40947;PMS5003;49382;-25.924;28.194;2023-02-15T05:22:15;6;6;
40947;PMS5003;49382;-25.924;28.194;2023-02-15T05:24:40;8;8;
40947;PMS5003;49382;-25.924;28.194;2023-02-15T05:27:07;8;8;
40947;PMS5003;49382;-25.924;28.194;2023-02-15T05:29:32;11;10;
40947;PMS5003;49382;-25.924;28.194;2023-02-15T05:31:58;9;9;
40947;PMS5003;49382;-25.924;28.194;2023-02-15T05:34:23;9;9;
40947;PMS5003;49382;-25.924;28.194;2023-02-15T05:36:49;12;11;
40947;PMS5003;49382;-25.924;28.194;2023-02-15T05:39:14;14;14;
40947;PMS5003;49382;-25.924;28.194;2023-02-15T05:41:40;8;8;
40947;PMS5003;49382;-25.924;28.194;2023-02-15T05:44:06;10;10;
40947;PMS5003;49382;-25.924;28.194;2023-02-15T05:46:32;13;12;
40947;PMS5003;49382;-25.924;28.194;2023-02-15T05:48:58;10;10;
40947;PMS5003;49382;-25.924;28.194;2023-02-15T05:51:23;11;11;
40947;PMS5003;49382;-25.924;28.194;2023-02-15T05:53:49;10;10;
40947;PMS5003;49382;-25.924;28.194;2023-02-15T05:56:15;12;12;
40947;PMS5003;49382;-25.924;28.194;2023-02-15T05:58:41;14;13;
40947;PMS5003;49382;-25.924;28.194;2023-02-15T06:01:08;14;14;
40947;PMS5003;49382;-25.924;28.194;2023-02-15T06:03:32;15;15;
40947;PMS5003;49382;-25.924;28.194;2023-02-15T06:05:58;15;15;
40947;PMS5003;49382;-25.924;28.194;2023-02-15T06:08:23;14;14;
40947;PMS5003;49382;-25.924;28.194;2023-02-15T06:10:49;14;14;
40947;PMS5003;49382;-25.924;28.194;2023-02-15T06:13:15;15;15;
40947;PMS5003;49382;-25.924;28.194;2023-02-15T06:15:40;15;14;
40947;PMS5003;49382;-25.924;28.194;2023-02-15T06:18:06;14;13;
40947;PMS5003;49382;-25.924;28.194;2023-02-15T06:20:32;14;13;
40947;PMS5003;49382;-25.924;28.194;2023-02-15T06:22:58;11;11;
40947;PMS5003;49382;-25.924;28.194;2023-02-15T06:25:24;16;16;
40947;PMS5003;49382;-25.924;28.194;2023-02-15T06:27:50;13;13;
40947;PMS5003;49382;-25.924;28.194;2023-02-15T06:30:15;14;14;
40947;PMS5003;49382;-25.924;28.194;2023-02-15T06:32:40;15;14;
40947;PMS5003;49382;-25.924;28.194;2023-02-15T06:35:06;11;11;
40947;PMS5003;49382;-25.924;28.194;2023-02-15T06:37:32;13;13;
40947;PMS5003;49382;-25.924;28.194;2023-02-15T06:39:57;12;12;
40947;PMS5003;49382;-25.924;28.194;2023-02-15T06:42:23;13;12;
40947;PMS5003;49382;-25.924;28.194;2023-02-15T06:44:49;13;13;
40947;PMS5003;49382;-25.924;28.194;2023-02-15T06:47:14;14;14;
40947;PMS5003;49382;-25.924;28.194;2023-02-15T06:49:40;11;11;
40947;PMS5003;49382;-25.924;28.194;2023-02-15T06:52:06;10;9;
40947;PMS5003;49382;-25.924;28.194;2023-02-15T06:54:32;9;9;
40947;PMS5003;49382;-25.924;28.194;2023-02-15T06:56:57;8;8;
40947;PMS5003;49382;-25.924;28.194;2023-02-15T06:59:23;11;10;
40947;PMS5003;49382;-25.924;28.194;2023-02-15T07:01:49;7;7;
40947;PMS5003;49382;-25.924;28.194;2023-02-15T07:04:14;12;11;
40947;PMS5003;49382;-25.924;28.194;2023-02-15T07:06:41;7;7;
40947;PMS5003;49382;-25.924;28.194;2023-02-15T07:09:06;7;7;
40947;PMS5003;49382;-25.924;28.194;2023-02-15T07:11:32;7;7;
40947;PMS5003;49382;-25.924;28.194;2023-02-15T07:13:57;7;7;
40947;PMS5003;49382;-25.924;28.194;2023-02-15T07:16:23;6;6;
40947;PMS5003;49382;-25.924;28.194;2023-02-15T07:18:49;6;6;
40947;PMS5003;49382;-25.924;28.194;2023-02-15T07:21:15;5;5;
40947;PMS5003;49382;-25.924;28.194;2023-02-15T07:23:40;5;5;
40947;PMS5003;49382;-25.924;28.194;2023-02-15T07:26:06;5;5;
40947;PMS5003;49382;-25.924;28.194;2023-02-15T07:28:32;3;3;
40947;PMS5003;49382;-25.924;28.194;2023-02-15T07:30:57;4;4;
40947;PMS5003;49382;-25.924;28.194;2023-02-15T07:33:23;5;5;
40947;PMS5003;49382;-25.924;28.194;2023-02-15T07:35:50;6;6;
40947;PMS5003;49382;-25.924;28.194;2023-02-15T07:38:15;4;4;
40947;PMS5003;49382;-25.924;28.194;2023-02-15T07:40:40;5;5;
40947;PMS5003;49382;-25.924;28.194;2023-02-15T07:43:06;5;5;
40947;PMS5003;49382;-25.924;28.194;2023-02-15T07:45:32;4;4;
40947;PMS5003;49382;-25.924;28.194;2023-02-15T07:47:58;4;4;
40947;PMS5003;49382;-25.924;28.194;2023-02-15T07:50:24;5;4;
40947;PMS5003;49382;-25.924;28.194;2023-02-15T07:52:49;4;4;
40947;PMS5003;49382;-25.924;28.194;2023-02-15T07:55:15;7;5;
40947;PMS5003;49382;-25.924;28.194;2023-02-15T07:57:42;4;3;
40947;PMS5003;49382;-25.924;28.194;2023-02-15T08:00:07;5;5;
40947;PMS5003;49382;-25.924;28.194;2023-02-15T08:02:32;5;5;
40947;PMS5003;49382;-25.924;28.194;2023-02-15T08:04:58;5;5;
40947;PMS5003;49382;-25.924;28.194;2023-02-15T08:07:23;6;5;
40947;PMS5003;49382;-25.924;28.194;2023-02-15T08:09:49;5;4;
40947;PMS5003;49382;-25.924;28.194;2023-02-15T08:12:15;4;4;
40947;PMS5003;49382;-25.924;28.194;2023-02-15T08:14:41;7;7;
40947;PMS5003;49382;-25.924;28.194;2023-02-15T08:17:06;5;5;
40947;PMS5003;49382;-25.924;28.194;2023-02-15T08:19:32;5;5;
40947;PMS5003;49382;-25.924;28.194;2023-02-15T08:21:59;5;5;
40947;PMS5003;49382;-25.924;28.194;2023-02-15T08:24:24;4;4;
40947;PMS5003;49382;-25.924;28.194;2023-02-15T08:26:49;5;5;
40947;PMS5003;49382;-25.924;28.194;2023-02-15T08:29:16;4;4;
40947;PMS5003;49382;-25.924;28.194;2023-02-15T08:31:41;4;4;
40947;PMS5003;49382;-25.924;28.194;2023-02-15T08:34:07;4;4;
40947;PMS5003;49382;-25.924;28.194;2023-02-15T08:36:32;6;6;
40947;PMS5003;49382;-25.924;28.194;2023-02-15T08:38:58;5;5;
40947;PMS5003;49382;-25.924;28.194;2023-02-15T08:41:24;3;2;
40947;PMS5003;49382;-25.924;28.194;2023-02-15T08:43:50;4;4;
40947;PMS5003;49382;-25.924;28.194;2023-02-15T08:46:15;2;2;
40947;PMS5003;49382;-25.924;28.194;2023-02-15T08:48:41;38;38;
40947;PMS5003;49382;-25.924;28.194;2023-02-15T08:51:08;19;19;
40947;PMS5003;49382;-25.924;28.194;2023-02-15T08:53:32;59;59;
40947;PMS5003;49382;-25.924;28.194;2023-02-15T08:55:57;43;43;
40947;PMS5003;49382;-25.924;28.194;2023-02-15T08:58:22;13;13;
40947;PMS5003;49382;-25.924;28.194;2023-02-15T09:00:47;59;59;
40947;PMS5003;49382;-25.924;28.194;2023-02-15T09:03:13;80;80;
40947;PMS5003;49382;-25.924;28.194;2023-02-15T09:05:38;24;24;
40947;PMS5003;49382;-25.924;28.194;2023-02-15T09:08:04;34;33;
40947;PMS5003;49382;-25.924;28.194;2023-02-15T09:10:30;6;6;
40947;PMS5003;49382;-25.924;28.194;2023-02-15T09:12:55;43;43;
40947;PMS5003;49382;-25.924;28.194;2023-02-15T09:15:21;102;102;
40947;PMS5003;49382;-25.924;28.194;2023-02-15T09:17:47;9;9;
40947;PMS5003;49382;-25.924;28.194;2023-02-15T09:20:12;19;19;
40947;PMS5003;49382;-25.924;28.194;2023-02-15T09:22:38;82;82;
40947;PMS5003;49382;-25.924;28.194;2023-02-15T09:25:04;25;25;
40947;PMS5003;49382;-25.924;28.194;2023-02-15T09:27:29;25;25;
40947;PMS5003;49382;-25.924;28.194;2023-02-15T09:29:55;22;22;
40947;PMS5003;49382;-25.924;28.194;2023-02-15T09:32:21;19;19;
40947;PMS5003;49382;-25.924;28.194;2023-02-15T09:34:46;10;9;
40947;PMS5003;49382;-25.924;28.194;2023-02-15T09:37:11;116;116;
40947;PMS5003;49382;-25.924;28.194;2023-02-15T09:39:37;64;64;
40947;PMS5003;49382;-25.924;28.194;2023-02-15T09:44:32;13;13;
40947;PMS5003;49382;-25.924;28.194;2023-02-15T09:46:58;22;22;
40947;PMS5003;49382;-25.924;28.194;2023-02-15T09:49:22;16;16;
40947;PMS5003;49382;-25.924;28.194;2023-02-15T09:54:15;44;44;
40947;PMS5003;49382;-25.924;28.194;2023-02-15T09:56:37;43;43;
40947;PMS5003;49382;-25.924;28.194;2023-02-15T09:59:03;42;42;
40947;PMS5003;49382;-25.924;28.194;2023-02-15T10:01:29;51;51;
40947;PMS5003;49382;-25.924;28.194;2023-02-15T10:03:56;44;44;
40947;PMS5003;49382;-25.924;28.194;2023-02-15T10:06:22;51;51;
40947;PMS5003;49382;-25.924;28.194;2023-02-15T10:08:48;116;116;
40947;PMS5003;49382;-25.924;28.194;2023-02-15T10:11:10;79;78;
40947;PMS5003;49382;-25.924;28.194;2023-02-15T10:13:34;4;4;
40947;PMS5003;49382;-25.924;28.194;2023-02-15T10:16:04;13;13;
40947;PMS5003;49382;-25.924;28.194;2023-02-15T10:20:52;50;50;
40947;PMS5003;49382;-25.924;28.194;2023-02-15T10:23:21;62;62;
40947;PMS5003;49382;-25.924;28.194;2023-02-15T10:25:41;63;63;
40947;PMS5003;49382;-25.924;28.194;2023-02-15T10:28:05;57;57;
40947;PMS5003;49382;-25.924;28.194;2023-02-15T10:30:32;49;49;
40947;PMS5003;49382;-25.924;28.194;2023-02-15T10:32:58;50;50;
40947;PMS5003;49382;-25.924;28.194;2023-02-15T10:35:22;107;107;
40947;PMS5003;49382;-25.924;28.194;2023-02-15T10:37:49;35;35;
40947;PMS5003;49382;-25.924;28.194;2023-02-15T10:40:14;98;98;
40947;PMS5003;49382;-25.924;28.194;2023-02-15T10:42:39;130;130;
40947;PMS5003;49382;-25.924;28.194;2023-02-15T10:45:06;104;104;
40947;PMS5003;49382;-25.924;28.194;2023-02-15T10:47:32;28;28;
40947;PMS5003;49382;-25.924;28.194;2023-02-15T10:49:59;44;44;
40947;PMS5003;49382;-25.924;28.194;2023-02-15T10:52:23;124;124;
40947;PMS5003;49382;-25.924;28.194;2023-02-15T10:54:45;20;20;
40947;PMS5003;49382;-25.924;28.194;2023-02-15T10:57:14;33;33;
40947;PMS5003;49382;-25.924;28.194;2023-02-15T11:02:02;106;106;
40947;PMS5003;49382;-25.924;28.194;2023-02-15T11:06:53;33;33;
40947;PMS5003;49382;-25.924;28.194;2023-02-15T11:09:17;23;23;
40947;PMS5003;49382;-25.924;28.194;2023-02-15T11:11:44;10;10;
40947;PMS5003;49382;-25.924;28.194;2023-02-15T11:14:14;6;6;
40947;PMS5003;49382;-25.924;28.194;2023-02-15T11:16:36;2;2;
40947;PMS5003;49382;-25.924;28.194;2023-02-15T11:19:01;1;1;
40947;PMS5003;49382;-25.924;28.194;2023-02-15T11:21:27;2;2;
40947;PMS5003;49382;-25.924;28.194;2023-02-15T11:23:52;13;13;
40947;PMS5003;49382;-25.924;28.194;2023-02-15T11:26:19;13;13;
40947;PMS5003;49382;-25.924;28.194;2023-02-15T11:28:45;23;23;
40947;PMS5003;49382;-25.924;28.194;2023-02-15T11:31:12;28;28;
40947;PMS5003;49382;-25.924;28.194;2023-02-15T11:33:35;19;19;
40947;PMS5003;49382;-25.924;28.194;2023-02-15T11:36:03;30;30;
40947;PMS5003;49382;-25.924;28.194;2023-02-15T11:38:27;16;16;
40947;PMS5003;49382;-25.924;28.194;2023-02-15T11:40:54;12;12;
40947;PMS5003;49382;-25.924;28.194;2023-02-15T11:43:19;4;4;
40947;PMS5003;49382;-25.924;28.194;2023-02-15T11:45:44;4;4;
40947;PMS5003;49382;-25.924;28.194;2023-02-15T11:48:10;5;5;
40947;PMS5003;49382;-25.924;28.194;2023-02-15T11:50:35;8;8;
40947;PMS5003;49382;-25.924;28.194;2023-02-15T11:53:01;11;10;
40947;PMS5003;49382;-25.924;28.194;2023-02-15T11:55:26;24;23;
40947;PMS5003;49382;-25.924;28.194;2023-02-15T11:57:53;33;33;
40947;PMS5003;49382;-25.924;28.194;2023-02-15T12:00:20;13;13;
40947;PMS5003;49382;-25.924;28.194;2023-02-15T12:02:44;8;8;
40947;PMS5003;49382;-25.924;28.194;2023-02-15T12:05:11;4;4;
40947;PMS5003;49382;-25.924;28.194;2023-02-15T12:07:35;7;7;
40947;PMS5003;49382;-25.924;28.194;2023-02-15T12:10:03;4;4;
40947;PMS5003;49382;-25.924;28.194;2023-02-15T12:12:27;2;2;
40947;PMS5003;49382;-25.924;28.194;2023-02-15T12:14:53;1;1;
40947;PMS5003;49382;-25.924;28.194;2023-02-15T12:17:20;0;0;
40947;PMS5003;49382;-25.924;28.194;2023-02-15T12:19:43;2;2;
40947;PMS5003;49382;-25.924;28.194;2023-02-15T12:22:17;2;1;
40947;PMS5003;49382;-25.924;28.194;2023-02-15T12:24:36;0;0;
40947;PMS5003;49382;-25.924;28.194;2023-02-15T12:27:02;2;2;
40947;PMS5003;49382;-25.924;28.194;2023-02-15T12:29:27;1;0;
40947;PMS5003;49382;-25.924;28.194;2023-02-15T12:31:52;2;2;
40947;PMS5003;49382;-25.924;28.194;2023-02-15T12:34:20;1;1;
40947;PMS5003;49382;-25.924;28.194;2023-02-15T12:36:44;1;1;
40947;PMS5003;49382;-25.924;28.194;2023-02-15T12:41:36;1;1;
40947;PMS5003;49382;-25.924;28.194;2023-02-15T12:44:05;1;1;
40947;PMS5003;49382;-25.924;28.194;2023-02-15T12:46:26;0;0;
40947;PMS5003;49382;-25.924;28.194;2023-02-15T12:51:18;1;1;
40947;PMS5003;49382;-25.924;28.194;2023-02-15T12:53:43;1;1;
40947;PMS5003;49382;-25.924;28.194;2023-02-15T12:56:09;0;0;
40947;PMS5003;49382;-25.924;28.194;2023-02-15T12:58:35;1;1;
40947;PMS5003;49382;-25.924;28.194;2023-02-15T13:01:10;2;2;
40947;PMS5003;49382;-25.924;28.194;2023-02-15T13:03:26;2;2;
40947;PMS5003;49382;-25.924;28.194;2023-02-15T13:05:53;9;8;
40947;PMS5003;49382;-25.924;28.194;2023-02-15T13:08:18;9;9;
40947;PMS5003;49382;-25.924;28.194;2023-02-15T13:10:52;6;6;
40947;PMS5003;49382;-25.924;28.194;2023-02-15T13:13:09;2;2;
40947;PMS5003;49382;-25.924;28.194;2023-02-15T13:15:35;1;1;
40947;PMS5003;49382;-25.924;28.194;2023-02-15T13:18:00;1;1;
40947;PMS5003;49382;-25.924;28.194;2023-02-15T13:20:26;2;2;
40947;PMS5003;49382;-25.924;28.194;2023-02-15T13:22:52;1;1;
40947;PMS5003;49382;-25.924;28.194;2023-02-15T13:25:18;1;1;
40947;PMS5003;49382;-25.924;28.194;2023-02-15T13:27:43;4;4;
40947;PMS5003;49382;-25.924;28.194;2023-02-15T13:30:13;7;7;
40947;PMS5003;49382;-25.924;28.194;2023-02-15T13:32:35;10;10;
40947;PMS5003;49382;-25.924;28.194;2023-02-15T13:35:01;3;3;
40947;PMS5003;49382;-25.924;28.194;2023-02-15T13:39:53;2;2;
40947;PMS5003;49382;-25.924;28.194;2023-02-15T13:42:19;3;3;
40947;PMS5003;49382;-25.924;28.194;2023-02-15T13:47:12;1;1;
40947;PMS5003;49382;-25.924;28.194;2023-02-15T13:49:39;0;0;
40947;PMS5003;49382;-25.924;28.194;2023-02-15T13:52:02;1;1;
40947;PMS5003;49382;-25.924;28.194;2023-02-15T13:54:28;0;0;
40947;PMS5003;49382;-25.924;28.194;2023-02-15T13:56:54;0;0;
40947;PMS5003;49382;-25.924;28.194;2023-02-15T14:01:44;2;2;
40947;PMS5003;49382;-25.924;28.194;2023-02-15T14:04:12;1;1;
40947;PMS5003;49382;-25.924;28.194;2023-02-15T14:09:03;1;1;
40947;PMS5003;49382;-25.924;28.194;2023-02-15T14:11:27;1;1;
40947;PMS5003;49382;-25.924;28.194;2023-02-15T14:16:19;1;1;
40947;PMS5003;49382;-25.924;28.194;2023-02-15T14:18:44;2;2;
40947;PMS5003;49382;-25.924;28.194;2023-02-15T14:21:09;3;3;
40947;PMS5003;49382;-25.924;28.194;2023-02-15T14:23:38;20;20;
40947;PMS5003;49382;-25.924;28.194;2023-02-15T14:26:02;18;18;
40947;PMS5003;49382;-25.924;28.194;2023-02-15T14:28:27;39;39;
40947;PMS5003;49382;-25.924;28.194;2023-02-15T14:30:51;7;7;
40947;PMS5003;49382;-25.924;28.194;2023-02-15T14:35:43;24;24;
40947;PMS5003;49382;-25.924;28.194;2023-02-15T14:38:11;51;51;
40947;PMS5003;49382;-25.924;28.194;2023-02-15T14:40:38;40;40;
40947;PMS5003;49382;-25.924;28.194;2023-02-15T14:43:02;54;54;
40947;PMS5003;49382;-25.924;28.194;2023-02-15T14:45:28;19;19;
40947;PMS5003;49382;-25.924;28.194;2023-02-15T14:47:55;48;48;
40947;PMS5003;49382;-25.924;28.194;2023-02-15T14:55:08;113;113;
40947;PMS5003;49382;-25.924;28.194;2023-02-15T14:57:33;101;101;
40947;PMS5003;49382;-25.924;28.194;2023-02-15T14:59:59;74;74;
40947;PMS5003;49382;-25.924;28.194;2023-02-15T15:02:25;28;28;
40947;PMS5003;49382;-25.924;28.194;2023-02-15T15:04:54;83;83;
40947;PMS5003;49382;-25.924;28.194;2023-02-15T15:07:17;5;5;
40947;PMS5003;49382;-25.924;28.194;2023-02-15T15:09:42;58;58;
40947;PMS5003;49382;-25.924;28.194;2023-02-15T15:16:57;46;46;
40947;PMS5003;49382;-25.924;28.194;2023-02-15T15:26:38;32;32;
40947;PMS5003;49382;-25.924;28.194;2023-02-15T15:29:03;46;46;
40947;PMS5003;49382;-25.924;28.194;2023-02-15T15:31:31;50;50;
40947;PMS5003;49382;-25.924;28.194;2023-02-15T15:34:00;36;36;
40947;PMS5003;49382;-25.924;28.194;2023-02-15T15:36:25;45;45;
40947;PMS5003;49382;-25.924;28.194;2023-02-15T15:38:45;72;72;
40947;PMS5003;49382;-25.924;28.194;2023-02-15T15:48:28;53;53;
40947;PMS5003;49382;-25.924;28.194;2023-02-15T15:50:51;88;88;
40947;PMS5003;49382;-25.924;28.194;2023-02-15T15:53:18;57;57;
40947;PMS5003;49382;-25.924;28.194;2023-02-15T15:55:41;42;42;
40947;PMS5003;49382;-25.924;28.194;2023-02-15T15:58:07;11;11;
40947;PMS5003;49382;-25.924;28.194;2023-02-15T16:00:34;87;86;
40947;PMS5003;49382;-25.924;28.194;2023-02-15T16:02:57;39;38;
40947;PMS5003;49382;-25.924;28.194;2023-02-15T16:05:22;103;103;
40947;PMS5003;49382;-25.924;28.194;2023-02-15T16:07:48;22;21;
40947;PMS5003;49382;-25.924;28.194;2023-02-15T16:12:38;26;25;
40947;PMS5003;49382;-25.924;28.194;2023-02-15T16:15:04;42;41;
40947;PMS5003;49382;-25.924;28.194;2023-02-15T16:17:30;34;34;
40947;PMS5003;49382;-25.924;28.194;2023-02-15T16:19:57;39;39;
40947;PMS5003;49382;-25.924;28.194;2023-02-15T16:22:21;149;146;
40947;PMS5003;49382;-25.924;28.194;2023-02-15T16:24:52;44;44;
40947;PMS5003;49382;-25.924;28.194;2023-02-15T16:27:17;32;32;
40947;PMS5003;49382;-25.924;28.194;2023-02-15T16:29:37;30;30;
40947;PMS5003;49382;-25.924;28.194;2023-02-15T16:32:04;27;27;
40947;PMS5003;49382;-25.924;28.194;2023-02-15T16:34:28;46;46;
40947;PMS5003;49382;-25.924;28.194;2023-02-15T16:39:19;57;57;
40947;PMS5003;49382;-25.924;28.194;2023-02-15T16:41:43;51;51;
40947;PMS5003;49382;-25.924;28.194;2023-02-15T16:44:11;106;105;
40947;PMS5003;49382;-25.924;28.194;2023-02-15T16:46:36;102;102;
40947;PMS5003;49382;-25.924;28.194;2023-02-15T16:48:59;15;14;
40947;PMS5003;49382;-25.924;28.194;2023-02-15T16:51:25;40;40;
40947;PMS5003;49382;-25.924;28.194;2023-02-15T16:53:50;106;106;
40947;PMS5003;49382;-25.924;28.194;2023-02-15T16:56:15;51;51;
40947;PMS5003;49382;-25.924;28.194;2023-02-15T16:58:41;117;117;
40947;PMS5003;49382;-25.924;28.194;2023-02-15T17:01:06;118;117;